sensor_id;sensor_type;location;lat;lon;timestamp;temperature;humidity
30628;DHT22;17394;50.890;4.724;2022-09-20T00:00:14;12.20;99.90
30628;DHT22;17394;50.890;4.724;2022-09-20T00:02:43;12.10;99.90
30628;DHT22;17394;50.890;4.724;2022-09-20T00:05:13;12.10;99.90
30628;DHT22;17394;50.890;4.724;2022-09-20T00:07:51;12.00;99.90
30628;DHT22;17394;50.890;4.724;2022-09-20T00:10:22;12.00;99.90
30628;DHT22;17394;50.890;4.724;2022-09-20T00:12:54;11.90;99.90
30628;DHT22;17394;50.890;4.724;2022-09-20T00:15:23;11.90;99.90
30628;DHT22;17394;50.890;4.724;2022-09-20T00:17:49;11.90;99.90
30628;DHT22;17394;50.890;4.724;2022-09-20T00:20:19;11.80;99.90
30628;DHT22;17394;50.890;4.724;2022-09-20T00:22:48;11.70;99.90
30628;DHT22;17394;50.890;4.724;2022-09-20T00:25:21;11.70;99.90
30628;DHT22;17394;50.890;4.724;2022-09-20T00:27:56;11.60;99.90
30628;DHT22;17394;50.890;4.724;2022-09-20T00:30:24;11.50;99.90
30628;DHT22;17394;50.890;4.724;2022-09-20T00:32:51;11.40;99.90
30628;DHT22;17394;50.890;4.724;2022-09-20T00:35:17;11.40;99.90
30628;DHT22;17394;50.890;4.724;2022-09-20T00:37:44;11.30;99.90
30628;DHT22;17394;50.890;4.724;2022-09-20T00:40:20;11.20;99.90
30628;DHT22;17394;50.890;4.724;2022-09-20T00:42:53;11.10;99.90
30628;DHT22;17394;50.890;4.724;2022-09-20T00:45:29;11.10;99.90
30628;DHT22;17394;50.890;4.724;2022-09-20T00:48:11;11.10;99.90
30628;DHT22;17394;50.890;4.724;2022-09-20T00:50:52;11.00;99.90
30628;DHT22;17394;50.890;4.724;2022-09-20T00:53:30;10.90;99.90
30628;DHT22;17394;50.890;4.724;2022-09-20T00:56:19;10.90;99.90
30628;DHT22;17394;50.890;4.724;2022-09-20T01:01:32;10.80;99.90
30628;DHT22;17394;50.890;4.724;2022-09-20T01:04:02;10.80;99.90
30628;DHT22;17394;50.890;4.724;2022-09-20T01:06:36;10.80;99.90
30628;DHT22;17394;50.890;4.724;2022-09-20T01:09:04;10.80;99.90
30628;DHT22;17394;50.890;4.724;2022-09-20T01:11:40;10.70;99.90
30628;DHT22;17394;50.890;4.724;2022-09-20T01:14:19;10.70;99.90
30628;DHT22;17394;50.890;4.724;2022-09-20T01:16:56;10.70;99.90
30628;DHT22;17394;50.890;4.724;2022-09-20T01:19:46;10.60;99.90
30628;DHT22;17394;50.890;4.724;2022-09-20T01:22:21;10.60;99.90
30628;DHT22;17394;50.890;4.724;2022-09-20T01:25:27;10.60;99.90
30628;DHT22;17394;50.890;4.724;2022-09-20T01:28:01;10.60;99.90
30628;DHT22;17394;50.890;4.724;2022-09-20T01:33:57;10.50;99.90
30628;DHT22;17394;50.890;4.724;2022-09-20T01:36:43;10.50;99.90
30628;DHT22;17394;50.890;4.724;2022-09-20T01:42:01;10.50;99.90
30628;DHT22;17394;50.890;4.724;2022-09-20T01:48:06;10.50;99.90
30628;DHT22;17394;50.890;4.724;2022-09-20T02:00:29;10.60;99.90
30628;DHT22;17394;50.890;4.724;2022-09-20T02:12:43;10.70;99.90
30628;DHT22;17394;50.890;4.724;2022-09-20T02:31:01;10.90;99.90
30628;DHT22;17394;50.890;4.724;2022-09-20T02:43:01;11.00;99.90
30628;DHT22;17394;50.890;4.724;2022-09-20T02:52:06;11.10;99.90
30628;DHT22;17394;50.890;4.724;2022-09-20T02:55:19;11.10;99.90
30628;DHT22;17394;50.890;4.724;2022-09-20T03:01:37;11.10;99.90
30628;DHT22;17394;50.890;4.724;2022-09-20T03:05:01;11.10;99.90
30628;DHT22;17394;50.890;4.724;2022-09-20T03:08:10;11.20;99.90
30628;DHT22;17394;50.890;4.724;2022-09-20T03:15:14;11.20;99.90
30628;DHT22;17394;50.890;4.724;2022-09-20T03:17:57;11.20;99.90
30628;DHT22;17394;50.890;4.724;2022-09-20T03:30:41;11.20;99.90
30628;DHT22;17394;50.890;4.724;2022-09-20T03:36:42;11.10;99.90
30628;DHT22;17394;50.890;4.724;2022-09-20T03:42:28;11.20;99.90
30628;DHT22;17394;50.890;4.724;2022-09-20T03:45:28;11.20;99.90
30628;DHT22;17394;50.890;4.724;2022-09-20T04:12:32;11.40;99.90
30628;DHT22;17394;50.890;4.724;2022-09-20T04:18:16;11.40;99.90
30628;DHT22;17394;50.890;4.724;2022-09-20T04:21:23;11.40;99.90
30628;DHT22;17394;50.890;4.724;2022-09-20T04:24:24;11.40;99.90
30628;DHT22;17394;50.890;4.724;2022-09-20T04:27:40;11.40;99.90
30628;DHT22;17394;50.890;4.724;2022-09-20T04:33:03;11.40;99.90
30628;DHT22;17394;50.890;4.724;2022-09-20T04:35:50;11.50;99.90
30628;DHT22;17394;50.890;4.724;2022-09-20T04:38:39;11.40;99.90
30628;DHT22;17394;50.890;4.724;2022-09-20T04:44:11;11.50;99.90
30628;DHT22;17394;50.890;4.724;2022-09-20T04:55:54;11.60;99.90
30628;DHT22;17394;50.890;4.724;2022-09-20T05:27:58;11.50;99.90
30628;DHT22;17394;50.890;4.724;2022-09-20T05:30:44;11.50;99.90
30628;DHT22;17394;50.890;4.724;2022-09-20T05:33:32;11.40;99.90
30628;DHT22;17394;50.890;4.724;2022-09-20T05:39:15;11.20;99.90
30628;DHT22;17394;50.890;4.724;2022-09-20T05:41:55;11.20;99.90
30628;DHT22;17394;50.890;4.724;2022-09-20T05:48:16;11.10;99.90
30628;DHT22;17394;50.890;4.724;2022-09-20T05:51:46;11.00;99.90
30628;DHT22;17394;50.890;4.724;2022-09-20T05:57:57;11.00;99.90
30628;DHT22;17394;50.890;4.724;2022-09-20T06:03:47;10.90;99.90
30628;DHT22;17394;50.890;4.724;2022-09-20T06:09:36;10.90;99.90
30628;DHT22;17394;50.890;4.724;2022-09-20T06:12:40;10.90;99.90
30628;DHT22;17394;50.890;4.724;2022-09-20T06:20:37;10.90;99.90
30628;DHT22;17394;50.890;4.724;2022-09-20T06:23:08;10.90;99.90
30628;DHT22;17394;50.890;4.724;2022-09-20T06:25:50;10.90;99.90
30628;DHT22;17394;50.890;4.724;2022-09-20T06:28:33;11.00;99.90
30628;DHT22;17394;50.890;4.724;2022-09-20T06:31:00;11.00;99.90
30628;DHT22;17394;50.890;4.724;2022-09-20T06:33:32;11.10;99.90
30628;DHT22;17394;50.890;4.724;2022-09-20T06:36:25;11.20;99.90
30628;DHT22;17394;50.890;4.724;2022-09-20T06:42:28;11.20;99.90
30628;DHT22;17394;50.890;4.724;2022-09-20T06:44:55;11.30;99.90
30628;DHT22;17394;50.890;4.724;2022-09-20T06:47:22;11.30;99.90
30628;DHT22;17394;50.890;4.724;2022-09-20T06:49:48;11.30;99.90
30628;DHT22;17394;50.890;4.724;2022-09-20T06:52:21;11.30;99.90
30628;DHT22;17394;50.890;4.724;2022-09-20T06:54:52;11.30;99.90
30628;DHT22;17394;50.890;4.724;2022-09-20T06:57:31;11.30;99.90
30628;DHT22;17394;50.890;4.724;2022-09-20T06:59:58;11.30;99.90
30628;DHT22;17394;50.890;4.724;2022-09-20T07:02:24;11.30;99.90
30628;DHT22;17394;50.890;4.724;2022-09-20T07:04:51;11.30;99.90
30628;DHT22;17394;50.890;4.724;2022-09-20T07:07:20;11.30;99.90
30628;DHT22;17394;50.890;4.724;2022-09-20T07:09:46;11.30;99.90
30628;DHT22;17394;50.890;4.724;2022-09-20T07:12:13;11.40;99.90
30628;DHT22;17394;50.890;4.724;2022-09-20T07:14:39;11.40;99.90
30628;DHT22;17394;50.890;4.724;2022-09-20T07:17:05;11.40;99.90
30628;DHT22;17394;50.890;4.724;2022-09-20T07:19:32;11.50;99.90
30628;DHT22;17394;50.890;4.724;2022-09-20T07:21:58;11.70;99.90
30628;DHT22;17394;50.890;4.724;2022-09-20T07:24:24;11.70;99.90
30628;DHT22;17394;50.890;4.724;2022-09-20T07:27:03;11.80;99.90
30628;DHT22;17394;50.890;4.724;2022-09-20T07:29:30;11.90;99.90
30628;DHT22;17394;50.890;4.724;2022-09-20T07:31:57;12.00;99.90
30628;DHT22;17394;50.890;4.724;2022-09-20T07:34:23;12.00;99.90
30628;DHT22;17394;50.890;4.724;2022-09-20T07:36:49;12.10;99.90
30628;DHT22;17394;50.890;4.724;2022-09-20T07:39:19;12.20;99.90
30628;DHT22;17394;50.890;4.724;2022-09-20T07:41:45;12.30;99.90
30628;DHT22;17394;50.890;4.724;2022-09-20T07:44:14;12.30;99.90
30628;DHT22;17394;50.890;4.724;2022-09-20T07:46:55;12.40;99.90
30628;DHT22;17394;50.890;4.724;2022-09-20T07:49:23;12.60;99.90
30628;DHT22;17394;50.890;4.724;2022-09-20T07:51:52;12.60;99.90
30628;DHT22;17394;50.890;4.724;2022-09-20T07:54:19;12.70;99.90
30628;DHT22;17394;50.890;4.724;2022-09-20T07:56:46;12.70;99.90
30628;DHT22;17394;50.890;4.724;2022-09-20T07:59:13;12.80;99.90
30628;DHT22;17394;50.890;4.724;2022-09-20T08:01:41;12.80;99.90
30628;DHT22;17394;50.890;4.724;2022-09-20T08:04:09;12.90;99.90
30628;DHT22;17394;50.890;4.724;2022-09-20T08:06:38;12.90;99.90
30628;DHT22;17394;50.890;4.724;2022-09-20T08:09:06;13.00;99.90
30628;DHT22;17394;50.890;4.724;2022-09-20T08:11:34;13.10;99.90
30628;DHT22;17394;50.890;4.724;2022-09-20T08:14:02;13.20;99.90
30628;DHT22;17394;50.890;4.724;2022-09-20T08:16:31;13.30;99.90
30628;DHT22;17394;50.890;4.724;2022-09-20T08:19:01;13.30;99.90
30628;DHT22;17394;50.890;4.724;2022-09-20T08:21:34;13.50;99.90
30628;DHT22;17394;50.890;4.724;2022-09-20T08:24:02;13.60;99.90
30628;DHT22;17394;50.890;4.724;2022-09-20T08:26:32;13.70;99.90
30628;DHT22;17394;50.890;4.724;2022-09-20T08:29:00;13.70;99.90
30628;DHT22;17394;50.890;4.724;2022-09-20T08:31:31;13.80;99.90
30628;DHT22;17394;50.890;4.724;2022-09-20T08:34:00;13.90;99.90
30628;DHT22;17394;50.890;4.724;2022-09-20T08:36:33;13.90;99.90
30628;DHT22;17394;50.890;4.724;2022-09-20T08:39:00;13.90;99.90
30628;DHT22;17394;50.890;4.724;2022-09-20T08:41:57;14.00;99.90
30628;DHT22;17394;50.890;4.724;2022-09-20T08:44:35;14.00;99.90
30628;DHT22;17394;50.890;4.724;2022-09-20T08:47:26;13.90;99.90
30628;DHT22;17394;50.890;4.724;2022-09-20T08:49:54;13.90;99.90
30628;DHT22;17394;50.890;4.724;2022-09-20T08:52:30;13.90;99.90
30628;DHT22;17394;50.890;4.724;2022-09-20T08:54:58;13.90;99.90
30628;DHT22;17394;50.890;4.724;2022-09-20T08:57:31;13.90;99.90
30628;DHT22;17394;50.890;4.724;2022-09-20T09:00:04;14.00;99.90
30628;DHT22;17394;50.890;4.724;2022-09-20T09:02:32;14.10;99.90
30628;DHT22;17394;50.890;4.724;2022-09-20T09:04:59;14.20;99.90
30628;DHT22;17394;50.890;4.724;2022-09-20T09:07:27;14.30;99.90
30628;DHT22;17394;50.890;4.724;2022-09-20T09:09:56;14.30;99.90
30628;DHT22;17394;50.890;4.724;2022-09-20T09:12:27;14.30;99.90
30628;DHT22;17394;50.890;4.724;2022-09-20T09:15:28;14.30;99.90
30628;DHT22;17394;50.890;4.724;2022-09-20T09:17:55;14.30;99.90
30628;DHT22;17394;50.890;4.724;2022-09-20T09:20:23;14.30;99.90
30628;DHT22;17394;50.890;4.724;2022-09-20T09:23:05;14.40;99.90
30628;DHT22;17394;50.890;4.724;2022-09-20T09:25:39;14.50;99.90
30628;DHT22;17394;50.890;4.724;2022-09-20T09:30:46;14.60;99.90
30628;DHT22;17394;50.890;4.724;2022-09-20T09:33:29;14.70;99.90
30628;DHT22;17394;50.890;4.724;2022-09-20T09:36:20;14.90;99.90
30628;DHT22;17394;50.890;4.724;2022-09-20T09:38:49;15.10;99.90
30628;DHT22;17394;50.890;4.724;2022-09-20T09:41:28;15.20;99.90
30628;DHT22;17394;50.890;4.724;2022-09-20T09:44:19;15.40;99.90
30628;DHT22;17394;50.890;4.724;2022-09-20T09:46:45;15.50;99.90
30628;DHT22;17394;50.890;4.724;2022-09-20T09:52:00;15.50;99.90
30628;DHT22;17394;50.890;4.724;2022-09-20T09:54:37;15.50;99.90
30628;DHT22;17394;50.890;4.724;2022-09-20T09:57:47;15.60;99.90
30628;DHT22;17394;50.890;4.724;2022-09-20T10:00:24;15.80;99.90
30628;DHT22;17394;50.890;4.724;2022-09-20T10:15:37;16.00;99.90
30628;DHT22;17394;50.890;4.724;2022-09-20T10:21:35;16.10;99.90
30628;DHT22;17394;50.890;4.724;2022-09-20T10:30:18;16.60;99.90
30628;DHT22;17394;50.890;4.724;2022-09-20T10:33:05;16.90;99.90
30628;DHT22;17394;50.890;4.724;2022-09-20T10:36:00;17.00;99.90
30628;DHT22;17394;50.890;4.724;2022-09-20T10:38:37;16.90;99.90
30628;DHT22;17394;50.890;4.724;2022-09-20T10:45:01;16.80;99.90
30628;DHT22;17394;50.890;4.724;2022-09-20T10:48:03;16.80;99.90
30628;DHT22;17394;50.890;4.724;2022-09-20T11:08:19;16.40;99.90
30628;DHT22;17394;50.890;4.724;2022-09-20T11:11:22;16.50;99.90
30628;DHT22;17394;50.890;4.724;2022-09-20T11:14:09;16.60;99.90
30628;DHT22;17394;50.890;4.724;2022-09-20T11:17:05;16.60;99.90
30628;DHT22;17394;50.890;4.724;2022-09-20T11:19:57;16.60;99.90
30628;DHT22;17394;50.890;4.724;2022-09-20T11:28:38;16.60;99.90
30628;DHT22;17394;50.890;4.724;2022-09-20T11:31:37;16.70;99.90
30628;DHT22;17394;50.890;4.724;2022-09-20T11:36:55;16.90;99.90
30628;DHT22;17394;50.890;4.724;2022-09-20T11:39:50;16.90;99.90
30628;DHT22;17394;50.890;4.724;2022-09-20T11:42:26;17.00;99.90
30628;DHT22;17394;50.890;4.724;2022-09-20T11:44:54;17.10;99.90
30628;DHT22;17394;50.890;4.724;2022-09-20T11:47:31;17.20;99.90
30628;DHT22;17394;50.890;4.724;2022-09-20T11:50:30;17.30;99.90
30628;DHT22;17394;50.890;4.724;2022-09-20T11:53:16;17.50;99.90
30628;DHT22;17394;50.890;4.724;2022-09-20T11:56:13;17.60;99.90
30628;DHT22;17394;50.890;4.724;2022-09-20T11:58:50;17.50;99.90
30628;DHT22;17394;50.890;4.724;2022-09-20T12:01:33;17.50;99.90
30628;DHT22;17394;50.890;4.724;2022-09-20T12:04:11;17.60;99.90
30628;DHT22;17394;50.890;4.724;2022-09-20T12:06:41;17.70;99.90
30628;DHT22;17394;50.890;4.724;2022-09-20T12:09:31;17.80;99.90
30628;DHT22;17394;50.890;4.724;2022-09-20T12:12:16;17.80;99.90
30628;DHT22;17394;50.890;4.724;2022-09-20T12:14:58;17.80;99.90
30628;DHT22;17394;50.890;4.724;2022-09-20T12:26:08;17.50;99.90
30628;DHT22;17394;50.890;4.724;2022-09-20T12:28:48;17.50;99.90
30628;DHT22;17394;50.890;4.724;2022-09-20T12:39:26;17.40;99.90
30628;DHT22;17394;50.890;4.724;2022-09-20T12:44:55;17.20;99.90
30628;DHT22;17394;50.890;4.724;2022-09-20T12:47:35;17.10;99.90
30628;DHT22;17394;50.890;4.724;2022-09-20T12:50:22;16.90;99.90
30628;DHT22;17394;50.890;4.724;2022-09-20T12:53:17;16.80;99.90
30628;DHT22;17394;50.890;4.724;2022-09-20T12:58:54;16.90;99.90
30628;DHT22;17394;50.890;4.724;2022-09-20T13:03:49;17.00;99.90
30628;DHT22;17394;50.890;4.724;2022-09-20T13:19:23;17.70;99.90
30628;DHT22;17394;50.890;4.724;2022-09-20T13:22:24;17.70;99.90
30628;DHT22;17394;50.890;4.724;2022-09-20T13:25:04;17.80;99.90
30628;DHT22;17394;50.890;4.724;2022-09-20T13:30:26;17.80;99.90
30628;DHT22;17394;50.890;4.724;2022-09-20T13:32:54;17.60;99.90
30628;DHT22;17394;50.890;4.724;2022-09-20T13:35:27;17.50;99.90
30628;DHT22;17394;50.890;4.724;2022-09-20T13:38:07;17.40;99.90
30628;DHT22;17394;50.890;4.724;2022-09-20T13:40:44;17.40;99.90
30628;DHT22;17394;50.890;4.724;2022-09-20T13:43:35;17.40;99.90
30628;DHT22;17394;50.890;4.724;2022-09-20T13:46:13;17.40;99.90
30628;DHT22;17394;50.890;4.724;2022-09-20T13:48:45;17.40;99.90
30628;DHT22;17394;50.890;4.724;2022-09-20T13:51:38;17.50;99.90
30628;DHT22;17394;50.890;4.724;2022-09-20T13:54:36;17.40;99.90
30628;DHT22;17394;50.890;4.724;2022-09-20T13:57:17;17.30;99.90
30628;DHT22;17394;50.890;4.724;2022-09-20T13:59:46;17.30;99.90
30628;DHT22;17394;50.890;4.724;2022-09-20T14:02:33;17.30;99.90
30628;DHT22;17394;50.890;4.724;2022-09-20T14:05:04;17.30;99.90
30628;DHT22;17394;50.890;4.724;2022-09-20T14:07:33;17.20;99.90
30628;DHT22;17394;50.890;4.724;2022-09-20T14:10:03;17.20;99.90
30628;DHT22;17394;50.890;4.724;2022-09-20T14:12:30;17.10;99.90
30628;DHT22;17394;50.890;4.724;2022-09-20T14:15:09;17.00;99.90
30628;DHT22;17394;50.890;4.724;2022-09-20T14:17:38;16.90;99.90
30628;DHT22;17394;50.890;4.724;2022-09-20T14:20:08;16.90;99.90
30628;DHT22;17394;50.890;4.724;2022-09-20T14:22:43;17.00;99.90
30628;DHT22;17394;50.890;4.724;2022-09-20T14:27:39;17.00;99.90
30628;DHT22;17394;50.890;4.724;2022-09-20T14:30:30;16.90;99.90
30628;DHT22;17394;50.890;4.724;2022-09-20T14:32:58;16.90;99.90
30628;DHT22;17394;50.890;4.724;2022-09-20T14:35:25;16.90;99.90
30628;DHT22;17394;50.890;4.724;2022-09-20T14:38:08;16.90;99.90
30628;DHT22;17394;50.890;4.724;2022-09-20T14:40:46;17.10;99.90
30628;DHT22;17394;50.890;4.724;2022-09-20T14:43:23;17.30;99.90
30628;DHT22;17394;50.890;4.724;2022-09-20T14:45:58;17.30;99.90
30628;DHT22;17394;50.890;4.724;2022-09-20T14:48:38;17.20;99.90
30628;DHT22;17394;50.890;4.724;2022-09-20T14:51:27;17.10;99.90
30628;DHT22;17394;50.890;4.724;2022-09-20T14:56:50;16.80;99.90
30628;DHT22;17394;50.890;4.724;2022-09-20T15:02:10;16.60;99.90
30628;DHT22;17394;50.890;4.724;2022-09-20T15:04:54;16.50;99.90
30628;DHT22;17394;50.890;4.724;2022-09-20T15:07:27;16.70;99.90
30628;DHT22;17394;50.890;4.724;2022-09-20T15:10:02;16.50;99.90
30628;DHT22;17394;50.890;4.724;2022-09-20T15:12:32;16.50;99.90
30628;DHT22;17394;50.890;4.724;2022-09-20T15:14:59;16.40;99.90
30628;DHT22;17394;50.890;4.724;2022-09-20T15:17:25;16.50;99.90
30628;DHT22;17394;50.890;4.724;2022-09-20T15:19:51;16.50;99.90
30628;DHT22;17394;50.890;4.724;2022-09-20T15:22:17;16.50;99.90
30628;DHT22;17394;50.890;4.724;2022-09-20T15:24:43;16.50;99.90
30628;DHT22;17394;50.890;4.724;2022-09-20T15:27:12;16.50;99.90
30628;DHT22;17394;50.890;4.724;2022-09-20T15:29:39;16.40;99.90
30628;DHT22;17394;50.890;4.724;2022-09-20T15:32:08;16.40;99.90
30628;DHT22;17394;50.890;4.724;2022-09-20T15:34:34;16.40;99.90
30628;DHT22;17394;50.890;4.724;2022-09-20T15:37:00;16.40;99.90
30628;DHT22;17394;50.890;4.724;2022-09-20T15:39:26;16.40;99.90
30628;DHT22;17394;50.890;4.724;2022-09-20T15:41:53;16.40;99.90
30628;DHT22;17394;50.890;4.724;2022-09-20T15:44:19;16.50;99.90
30628;DHT22;17394;50.890;4.724;2022-09-20T15:46:45;16.60;99.90
30628;DHT22;17394;50.890;4.724;2022-09-20T15:49:13;16.60;99.90
30628;DHT22;17394;50.890;4.724;2022-09-20T15:51:40;16.60;99.90
30628;DHT22;17394;50.890;4.724;2022-09-20T15:54:08;16.60;99.90
30628;DHT22;17394;50.890;4.724;2022-09-20T15:56:37;16.50;99.90
30628;DHT22;17394;50.890;4.724;2022-09-20T15:59:09;16.50;99.90
30628;DHT22;17394;50.890;4.724;2022-09-20T16:01:40;16.50;99.90
30628;DHT22;17394;50.890;4.724;2022-09-20T16:04:10;16.30;99.90
30628;DHT22;17394;50.890;4.724;2022-09-20T16:06:40;16.30;99.90
30628;DHT22;17394;50.890;4.724;2022-09-20T16:09:08;16.20;99.90
30628;DHT22;17394;50.890;4.724;2022-09-20T16:11:34;16.10;99.90
30628;DHT22;17394;50.890;4.724;2022-09-20T16:14:02;16.10;99.90
30628;DHT22;17394;50.890;4.724;2022-09-20T16:16:31;16.00;99.90
30628;DHT22;17394;50.890;4.724;2022-09-20T16:18:58;15.90;99.90
30628;DHT22;17394;50.890;4.724;2022-09-20T16:24:16;15.80;99.90
30628;DHT22;17394;50.890;4.724;2022-09-20T16:26:42;15.80;99.90
30628;DHT22;17394;50.890;4.724;2022-09-20T16:29:09;15.70;99.90
30628;DHT22;17394;50.890;4.724;2022-09-20T16:31:47;15.70;99.90
30628;DHT22;17394;50.890;4.724;2022-09-20T16:34:33;15.60;99.90
30628;DHT22;17394;50.890;4.724;2022-09-20T16:37:05;15.70;99.90
30628;DHT22;17394;50.890;4.724;2022-09-20T16:39:32;15.60;99.90
30628;DHT22;17394;50.890;4.724;2022-09-20T16:42:05;15.70;99.90
30628;DHT22;17394;50.890;4.724;2022-09-20T16:44:35;15.60;99.90
30628;DHT22;17394;50.890;4.724;2022-09-20T16:47:09;15.60;99.90
30628;DHT22;17394;50.890;4.724;2022-09-20T16:49:38;15.60;99.90
30628;DHT22;17394;50.890;4.724;2022-09-20T16:52:06;15.50;99.90
30628;DHT22;17394;50.890;4.724;2022-09-20T16:54:33;15.50;99.90
30628;DHT22;17394;50.890;4.724;2022-09-20T16:57:00;15.40;99.90
30628;DHT22;17394;50.890;4.724;2022-09-20T16:59:26;15.30;99.90
30628;DHT22;17394;50.890;4.724;2022-09-20T17:01:56;15.30;99.90
30628;DHT22;17394;50.890;4.724;2022-09-20T17:04:22;15.20;99.90
30628;DHT22;17394;50.890;4.724;2022-09-20T17:06:50;15.10;99.90
30628;DHT22;17394;50.890;4.724;2022-09-20T17:09:17;15.10;99.90
30628;DHT22;17394;50.890;4.724;2022-09-20T17:11:46;15.00;99.90
30628;DHT22;17394;50.890;4.724;2022-09-20T17:14:17;15.00;99.90
30628;DHT22;17394;50.890;4.724;2022-09-20T17:16:44;15.00;99.90
30628;DHT22;17394;50.890;4.724;2022-09-20T17:19:15;14.90;99.90
30628;DHT22;17394;50.890;4.724;2022-09-20T17:21:46;14.90;99.90
30628;DHT22;17394;50.890;4.724;2022-09-20T17:24:21;14.80;99.90
30628;DHT22;17394;50.890;4.724;2022-09-20T17:26:48;14.90;99.90
30628;DHT22;17394;50.890;4.724;2022-09-20T17:29:18;14.80;99.90
30628;DHT22;17394;50.890;4.724;2022-09-20T17:31:48;14.80;99.90
30628;DHT22;17394;50.890;4.724;2022-09-20T17:34:16;14.80;99.90
30628;DHT22;17394;50.890;4.724;2022-09-20T17:36:45;14.70;99.90
30628;DHT22;17394;50.890;4.724;2022-09-20T17:39:14;14.70;99.90
30628;DHT22;17394;50.890;4.724;2022-09-20T17:41:44;14.70;99.90
30628;DHT22;17394;50.890;4.724;2022-09-20T17:44:10;14.60;99.90
30628;DHT22;17394;50.890;4.724;2022-09-20T17:46:40;14.70;99.90
30628;DHT22;17394;50.890;4.724;2022-09-20T17:49:10;14.60;99.90
30628;DHT22;17394;50.890;4.724;2022-09-20T17:51:39;14.60;99.90
30628;DHT22;17394;50.890;4.724;2022-09-20T17:54:09;14.60;99.90
30628;DHT22;17394;50.890;4.724;2022-09-20T17:56:42;14.60;99.90
30628;DHT22;17394;50.890;4.724;2022-09-20T17:59:11;14.60;99.90
30628;DHT22;17394;50.890;4.724;2022-09-20T18:01:39;14.60;99.90
30628;DHT22;17394;50.890;4.724;2022-09-20T18:04:07;14.60;99.90
30628;DHT22;17394;50.890;4.724;2022-09-20T18:06:46;14.60;99.90
30628;DHT22;17394;50.890;4.724;2022-09-20T18:09:19;14.50;99.90
30628;DHT22;17394;50.890;4.724;2022-09-20T18:11:51;14.50;99.90
30628;DHT22;17394;50.890;4.724;2022-09-20T18:14:25;14.50;99.90
30628;DHT22;17394;50.890;4.724;2022-09-20T18:16:59;14.50;99.90
30628;DHT22;17394;50.890;4.724;2022-09-20T18:19:29;14.50;99.90
30628;DHT22;17394;50.890;4.724;2022-09-20T18:22:00;14.50;99.90
30628;DHT22;17394;50.890;4.724;2022-09-20T18:24:26;14.50;99.90
30628;DHT22;17394;50.890;4.724;2022-09-20T18:26:53;14.50;99.90
30628;DHT22;17394;50.890;4.724;2022-09-20T18:29:19;14.40;99.90
30628;DHT22;17394;50.890;4.724;2022-09-20T18:31:51;14.40;99.90
30628;DHT22;17394;50.890;4.724;2022-09-20T18:34:25;14.40;99.90
30628;DHT22;17394;50.890;4.724;2022-09-20T18:36:58;14.30;99.90
30628;DHT22;17394;50.890;4.724;2022-09-20T18:39:31;14.30;99.90
30628;DHT22;17394;50.890;4.724;2022-09-20T18:42:02;14.30;99.90
30628;DHT22;17394;50.890;4.724;2022-09-20T18:44:31;14.20;99.90
30628;DHT22;17394;50.890;4.724;2022-09-20T18:46:59;14.20;99.90
30628;DHT22;17394;50.890;4.724;2022-09-20T18:49:28;14.20;99.90
30628;DHT22;17394;50.890;4.724;2022-09-20T18:51:56;14.10;99.90
30628;DHT22;17394;50.890;4.724;2022-09-20T18:54:22;14.10;99.90
30628;DHT22;17394;50.890;4.724;2022-09-20T18:56:50;14.00;99.90
30628;DHT22;17394;50.890;4.724;2022-09-20T18:59:24;13.90;99.90
30628;DHT22;17394;50.890;4.724;2022-09-20T19:02:24;13.90;99.90
30628;DHT22;17394;50.890;4.724;2022-09-20T19:05:20;13.80;99.90
30628;DHT22;17394;50.890;4.724;2022-09-20T19:08:27;13.80;99.90
30628;DHT22;17394;50.890;4.724;2022-09-20T19:11:11;13.70;99.90
30628;DHT22;17394;50.890;4.724;2022-09-20T19:14:03;13.70;99.90
30628;DHT22;17394;50.890;4.724;2022-09-20T19:16:35;13.60;99.90
30628;DHT22;17394;50.890;4.724;2022-09-20T19:25:21;13.50;99.90
30628;DHT22;17394;50.890;4.724;2022-09-20T19:27:50;13.50;99.90
30628;DHT22;17394;50.890;4.724;2022-09-20T19:30:19;13.50;99.90
30628;DHT22;17394;50.890;4.724;2022-09-20T19:32:45;13.50;99.90
30628;DHT22;17394;50.890;4.724;2022-09-20T19:35:27;13.40;99.90
30628;DHT22;17394;50.890;4.724;2022-09-20T19:38:36;13.40;99.90
30628;DHT22;17394;50.890;4.724;2022-09-20T19:44:01;13.30;99.90
30628;DHT22;17394;50.890;4.724;2022-09-20T19:47:35;13.30;99.90
30628;DHT22;17394;50.890;4.724;2022-09-20T19:50:34;13.30;99.90
30628;DHT22;17394;50.890;4.724;2022-09-20T19:53:04;13.20;99.90
30628;DHT22;17394;50.890;4.724;2022-09-20T19:55:33;13.20;99.90
30628;DHT22;17394;50.890;4.724;2022-09-20T19:58:03;13.20;99.90
30628;DHT22;17394;50.890;4.724;2022-09-20T20:00:30;13.10;99.90
30628;DHT22;17394;50.890;4.724;2022-09-20T20:02:57;13.00;99.90
30628;DHT22;17394;50.890;4.724;2022-09-20T20:05:24;13.00;99.90
30628;DHT22;17394;50.890;4.724;2022-09-20T20:11:12;12.90;99.90
30628;DHT22;17394;50.890;4.724;2022-09-20T20:26:20;12.60;99.90
30628;DHT22;17394;50.890;4.724;2022-09-20T20:28:47;12.50;99.90
30628;DHT22;17394;50.890;4.724;2022-09-20T20:31:16;12.40;99.90
30628;DHT22;17394;50.890;4.724;2022-09-20T20:33:42;12.40;99.90
30628;DHT22;17394;50.890;4.724;2022-09-20T20:36:10;12.30;99.90
30628;DHT22;17394;50.890;4.724;2022-09-20T20:38:39;12.20;99.90
30628;DHT22;17394;50.890;4.724;2022-09-20T20:41:13;12.10;99.90
30628;DHT22;17394;50.890;4.724;2022-09-20T20:43:43;12.10;99.90
30628;DHT22;17394;50.890;4.724;2022-09-20T20:46:19;12.00;99.90
30628;DHT22;17394;50.890;4.724;2022-09-20T20:48:45;12.00;99.90
30628;DHT22;17394;50.890;4.724;2022-09-20T20:51:16;11.90;99.90
30628;DHT22;17394;50.890;4.724;2022-09-20T20:53:50;11.80;99.90
30628;DHT22;17394;50.890;4.724;2022-09-20T20:56:26;11.80;99.90
30628;DHT22;17394;50.890;4.724;2022-09-20T20:58:57;11.70;99.90
30628;DHT22;17394;50.890;4.724;2022-09-20T21:01:30;11.70;99.90
30628;DHT22;17394;50.890;4.724;2022-09-20T21:03:58;11.60;99.90
30628;DHT22;17394;50.890;4.724;2022-09-20T21:06:31;11.60;99.90
30628;DHT22;17394;50.890;4.724;2022-09-20T21:08:57;11.50;99.90
30628;DHT22;17394;50.890;4.724;2022-09-20T21:11:30;11.50;99.90
30628;DHT22;17394;50.890;4.724;2022-09-20T21:14:00;11.40;99.90
30628;DHT22;17394;50.890;4.724;2022-09-20T21:16:35;11.40;99.90
30628;DHT22;17394;50.890;4.724;2022-09-20T21:19:03;11.30;99.90
30628;DHT22;17394;50.890;4.724;2022-09-20T21:21:31;11.20;99.90
30628;DHT22;17394;50.890;4.724;2022-09-20T21:24:07;11.20;99.90
30628;DHT22;17394;50.890;4.724;2022-09-20T21:26:35;11.20;99.90
30628;DHT22;17394;50.890;4.724;2022-09-20T21:29:09;11.10;99.90
30628;DHT22;17394;50.890;4.724;2022-09-20T21:31:39;11.00;99.90
30628;DHT22;17394;50.890;4.724;2022-09-20T21:34:07;11.00;99.90
30628;DHT22;17394;50.890;4.724;2022-09-20T21:36:36;10.90;99.90
30628;DHT22;17394;50.890;4.724;2022-09-20T21:39:05;10.90;99.90